Time;durP1;ratioP1;P1;durP2;ratioP2;P2;SDS_P1;SDS_P2;PMS_P1;PMS_P2;Temp;Humidity;BMP_temperature;BMP_pressure;BME280_temperature;BME280_humidity;BME280_pressure;Samples;Min_cycle;Max_cycle;Signal;HPM_P1;HPM_P2
2022/02/17 00:00:27;;;;;;;0.57;0.20;;;16.30;68.10;;;;;;2284741;55;20960;-71
2022/02/17 00:02:54;;;;;;;0.57;0.22;;;16.30;67.80;;;;;;2289618;55;21681;-73
2022/02/17 00:05:22;;;;;;;0.73;0.20;;;16.30;68.00;;;;;;2272230;55;20977;-71
2022/02/17 00:07:49;;;;;;;0.62;0.20;;;16.40;68.20;;;;;;2335260;55;20949;-73
2022/02/17 00:10:15;;;;;;;0.90;0.20;;;16.40;67.60;;;;;;2315812;55;20945;-74
2022/02/17 00:12:47;;;;;;;1.00;0.20;;;16.40;67.30;;;;;;2292845;55;21615;-73
2022/02/17 00:15:15;;;;;;;1.65;0.50;;;16.40;67.50;;;;;;2286750;56;20953;-73
2022/02/17 00:17:41;;;;;;;0.57;0.30;;;16.40;67.50;;;;;;2287911;55;20981;-72
2022/02/17 00:20:08;;;;;;;0.52;0.20;;;16.50;67.00;;;;;;2282727;55;21783;-72
2022/02/17 00:22:36;;;;;;;0.77;0.20;;;16.40;66.90;;;;;;2288851;56;21547;-71
2022/02/17 00:25:03;;;;;;;0.37;0.20;;;16.40;66.90;;;;;;2363952;54;21002;-73
2022/02/17 00:27:29;;;;;;;1.08;0.30;;;16.40;67.60;;;;;;2374848;55;20976;-72
2022/02/17 00:29:55;;;;;;;0.80;0.20;;;16.40;66.80;;;;;;2286463;55;20972;-73
2022/02/17 00:32:24;;;;;;;0.10;0.10;;;16.40;66.90;;;;;;2287607;55;20958;-72
2022/02/17 00:34:51;;;;;;;0.82;0.22;;;16.40;66.80;;;;;;2268787;55;20960;-71
2022/02/17 00:37:18;;;;;;;0.43;0.20;;;16.40;66.90;;;;;;2289558;55;21127;-74
2022/02/17 00:39:45;;;;;;;0.90;0.30;;;16.40;67.10;;;;;;2282586;55;21446;-74
2022/02/17 00:42:12;;;;;;;0.60;0.20;;;16.40;66.90;;;;;;2287282;56;20980;-74
2022/02/17 00:44:38;;;;;;;0.75;0.20;;;16.40;66.80;;;;;;2285776;55;20952;-74
2022/02/17 00:47:06;;;;;;;1.27;0.30;;;16.40;67.10;;;;;;2287168;56;21000;-71
2022/02/17 00:49:32;;;;;;;0.95;0.30;;;16.40;67.10;;;;;;2300942;55;21020;-72
2022/02/17 00:51:58;;;;;;;1.20;0.20;;;16.40;66.70;;;;;;2286301;55;20946;-70
2022/02/17 00:54:25;;;;;;;0.95;0.20;;;16.50;66.80;;;;;;2480964;54;20973;-72
2022/02/17 00:56:51;;;;;;;0.45;0.20;;;16.40;66.50;;;;;;2286912;56;20949;-74
2022/02/17 00:59:18;;;;;;;0.68;0.25;;;16.40;66.70;;;;;;2295317;55;21036;-72
2022/02/17 01:01:46;;;;;;;0.22;0.10;;;16.40;66.30;;;;;;2287045;56;21524;-70
2022/02/17 01:04:13;;;;;;;0.50;0.20;;;16.40;66.60;;;;;;2322736;55;20934;-73
2022/02/17 01:06:40;;;;;;;0.25;0.17;;;16.40;66.30;;;;;;2285558;55;20940;-70
2022/02/17 01:09:07;;;;;;;0.30;0.10;;;16.40;66.40;;;;;;2392866;55;20957;-72
2022/02/17 01:11:38;;;;;;;0.50;0.15;;;16.40;65.70;;;;;;2349754;55;21052;-74
2022/02/17 01:14:04;;;;;;;0.85;0.28;;;16.40;66.30;;;;;;2381914;55;20940;-72
2022/02/17 01:16:34;;;;;;;1.87;0.30;;;16.40;65.50;;;;;;2286855;56;20956;-71
2022/02/17 01:19:03;;;;;;;0.50;0.20;;;16.50;65.90;;;;;;2521563;55;20949;-74
2022/02/17 01:21:30;;;;;;;0.85;0.20;;;16.40;65.80;;;;;;2286958;56;21415;-73
2022/02/17 01:23:59;;;;;;;0.32;0.20;;;16.40;67.00;;;;;;2365008;55;20996;-72
2022/02/17 01:26:25;;;;;;;1.98;0.20;;;16.40;66.30;;;;;;2286983;56;20953;-74
2022/02/17 01:28:51;;;;;;;0.40;0.20;;;16.40;66.20;;;;;;2339248;55;21004;-73
2022/02/17 01:31:18;;;;;;;0.65;0.28;;;16.40;66.20;;;;;;2287179;56;20960;-73
2022/02/17 01:33:44;;;;;;;0.35;0.20;;;16.40;66.30;;;;;;2402306;55;20961;-73
2022/02/17 01:36:11;;;;;;;0.95;0.37;;;16.30;66.10;;;;;;2285594;55;20941;-71
2022/02/17 01:38:39;;;;;;;0.52;0.22;;;16.30;66.10;;;;;;2287080;56;22154;-72
2022/02/17 01:41:06;;;;;;;0.60;0.28;;;16.30;66.20;;;;;;2288192;55;20938;-71
2022/02/17 01:43:32;;;;;;;1.15;0.30;;;16.20;66.20;;;;;;2519238;55;21021;-71
2022/02/17 01:46:00;;;;;;;0.40;0.20;;;16.20;66.40;;;;;;2286920;56;21000;-71
2022/02/17 01:48:27;;;;;;;0.93;0.20;;;16.20;66.70;;;;;;2513126;54;21925;-71
2022/02/17 01:50:53;;;;;;;0.75;0.20;;;16.20;66.80;;;;;;2287525;56;21489;-69
2022/02/17 01:53:21;;;;;;;0.43;0.15;;;16.20;66.80;;;;;;2287759;56;20961;-74
2022/02/17 01:55:48;;;;;;;0.93;0.20;;;16.10;66.50;;;;;;2292626;55;21581;-73
2022/02/17 01:58:15;;;;;;;1.62;0.20;;;16.10;66.50;;;;;;2289187;56;20940;-73
2022/02/17 02:00:42;;;;;;;0.50;0.15;;;16.10;66.60;;;;;;2290512;55;21584;-74
2022/02/17 02:03:12;;;;;;;0.45;0.20;;;16.10;66.80;;;;;;2290533;55;20941;-72
2022/02/17 02:05:39;;;;;;;0.32;0.10;;;16.00;66.80;;;;;;2288144;55;20964;-72
2022/02/17 02:08:05;;;;;;;0.93;0.20;;;15.90;66.70;;;;;;2289131;55;21500;-73
2022/02/17 02:10:36;;;;;;;0.75;0.20;;;15.90;66.60;;;;;;2520930;55;21673;-71
2022/02/17 02:13:02;;;;;;;0.65;0.20;;;15.80;66.70;;;;;;2342931;55;21027;-74
2022/02/17 02:19:00;;;;;;;0.60;0.22;;;15.70;66.80;;;;;;2316647;54;20988;-73
2022/02/17 02:21:29;;;;;;;1.10;0.30;;;15.60;66.80;;;;;;2292803;56;21132;-71
2022/02/17 02:23:56;;;;;;;0.35;0.30;;;15.60;67.30;;;;;;2379433;55;21750;-70
2022/02/17 02:26:23;;;;;;;1.48;0.40;;;15.50;67.60;;;;;;2336461;55;21437;-75
2022/02/17 02:28:50;;;;;;;0.60;0.10;;;15.40;67.60;;;;;;2291007;55;20924;-71
2022/02/17 02:31:18;;;;;;;0.37;0.20;;;15.40;68.10;;;;;;2291610;56;20883;-74
2022/02/17 02:33:47;;;;;;;0.52;0.20;;;15.40;68.20;;;;;;2341093;54;20988;-71
2022/02/17 02:36:14;;;;;;;0.40;0.17;;;15.40;68.50;;;;;;2523637;55;20960;-70
2022/02/17 02:38:56;;;;;;;0.30;0.20;;;15.40;68.50;;;;;;2296783;55;21131;-72
2022/02/17 02:41:23;;;;;;;0.80;0.20;;;15.40;68.60;;;;;;2275046;55;21047;-73
2022/02/17 02:43:50;;;;;;;0.93;0.20;;;15.40;68.50;;;;;;2301972;55;21076;-71
2022/02/17 02:46:17;;;;;;;0.73;0.20;;;15.40;68.50;;;;;;2288524;55;21977;-71
2022/02/17 02:48:43;;;;;;;0.98;0.10;;;15.50;68.80;;;;;;2310469;54;21016;-72
2022/02/17 02:51:09;;;;;;;0.62;0.20;;;15.50;68.70;;;;;;2291129;55;21080;-70
2022/02/17 02:53:36;;;;;;;0.52;0.20;;;15.50;68.70;;;;;;2315488;55;21454;-72
2022/02/17 02:56:03;;;;;;;0.75;0.30;;;15.50;68.60;;;;;;2287353;55;21350;-72
2022/02/17 02:58:29;;;;;;;1.42;0.37;;;15.50;68.70;;;;;;2382005;55;21803;-73
2022/02/17 03:00:55;;;;;;;0.37;0.17;;;15.60;68.70;;;;;;2289672;55;20998;-72
2022/02/17 03:03:23;;;;;;;0.43;0.20;;;15.50;68.40;;;;;;2477792;54;20916;-73
2022/02/17 03:05:49;;;;;;;0.95;0.30;;;15.60;68.50;;;;;;2291353;55;20964;-72
2022/02/17 03:08:16;;;;;;;0.52;0.10;;;15.60;68.40;;;;;;2332942;55;21092;-71
2022/02/17 03:10:45;;;;;;;2.05;0.20;;;15.60;68.40;;;;;;2288801;55;20940;-72
2022/02/17 03:13:11;;;;;;;0.60;0.10;;;15.60;68.30;;;;;;2523542;54;21037;-73
2022/02/17 03:15:38;;;;;;;1.05;0.40;;;15.60;68.40;;;;;;2287523;55;21087;-70
2022/02/17 03:18:07;;;;;;;0.30;0.10;;;15.70;68.10;;;;;;2374536;54;20992;-73
2022/02/17 03:20:34;;;;;;;0.40;0.20;;;15.70;68.50;;;;;;2288554;55;21724;-72
2022/02/17 03:23:01;;;;;;;0.47;0.20;;;15.70;68.40;;;;;;2288825;55;20926;-71
2022/02/17 03:25:28;;;;;;;0.13;0.00;;;15.70;68.40;;;;;;2480417;55;21723;-73
2022/02/17 03:27:55;;;;;;;0.30;0.20;;;15.80;68.30;;;;;;2342299;55;21406;-73
2022/02/17 03:30:22;;;;;;;1.50;0.10;;;15.80;68.10;;;;;;2261731;56;1742687;-73
2022/02/17 03:32:48;;;;;;;1.20;0.10;;;15.80;68.30;;;;;;2289294;56;20961;-70
2022/02/17 03:35:14;;;;;;;0.47;0.10;;;15.80;68.40;;;;;;2313394;55;20948;-71
2022/02/17 03:37:41;;;;;;;0.10;0.00;;;15.90;68.10;;;;;;2521315;54;20956;-72
2022/02/17 03:40:11;;;;;;;0.35;0.10;;;15.90;67.70;;;;;;2329091;55;20974;-73
2022/02/17 03:42:38;;;;;;;0.37;0.15;;;16.00;67.90;;;;;;2274772;55;21000;-73
2022/02/17 03:45:07;;;;;;;0.00;0.00;;;16.00;68.00;;;;;;2289429;56;21829;-72
2022/02/17 03:47:33;;;;;;;0.10;0.00;;;16.00;67.90;;;;;;2290119;56;20949;-70
2022/02/17 03:50:00;;;;;;;0.10;0.10;;;16.10;68.10;;;;;;2289411;55;20957;-72
2022/02/17 03:52:28;;;;;;;0.88;0.10;;;16.10;67.50;;;;;;2289374;56;21000;-71
2022/02/17 03:54:55;;;;;;;1.80;0.10;;;16.20;67.10;;;;;;2523124;55;20985;-71
2022/02/17 03:57:21;;;;;;;0.65;0.10;;;16.30;67.50;;;;;;2291236;55;20948;-75
2022/02/17 03:59:48;;;;;;;0.32;0.03;;;16.30;67.50;;;;;;2368558;55;21782;-70
2022/02/17 04:02:15;;;;;;;0.35;0.00;;;16.40;67.60;;;;;;2302711;55;21665;-72
2022/02/17 04:04:41;;;;;;;0.03;0.03;;;16.50;67.40;;;;;;2458697;54;20984;-72
2022/02/17 04:07:07;;;;;;;0.00;0.00;;;16.60;67.40;;;;;;2422659;55;21024;-73
2022/02/17 04:09:34;;;;;;;0.22;0.10;;;16.60;67.30;;;;;;2433313;55;20948;-73
2022/02/17 04:12:00;;;;;;;0.00;0.00;;;16.70;66.90;;;;;;2288032;55;20944;-71
2022/02/17 04:14:27;;;;;;;0.00;0.00;;;16.80;67.00;;;;;;2289420;56;20968;-72
2022/02/17 04:16:54;;;;;;;0.73;0.10;;;16.80;67.10;;;;;;2288692;55;21105;-71
2022/02/17 04:19:21;;;;;;;0.20;0.10;;;16.90;66.90;;;;;;2289397;56;20960;-71
2022/02/17 04:21:48;;;;;;;0.17;0.00;;;17.00;66.70;;;;;;2291708;55;21029;-71
2022/02/17 04:24:14;;;;;;;0.28;0.10;;;17.00;67.00;;;;;;2312010;55;20974;-74
2022/02/17 04:26:41;;;;;;;0.10;0.10;;;17.00;66.60;;;;;;2289069;55;20956;-73
2022/02/17 04:29:07;;;;;;;0.28;0.00;;;17.10;66.70;;;;;;2303122;55;20961;-72
2022/02/17 04:31:34;;;;;;;0.43;0.05;;;17.10;66.60;;;;;;2295673;55;20950;-72
2022/02/17 04:34:00;;;;;;;0.05;0.05;;;17.20;66.60;;;;;;2349802;54;20968;-73
2022/02/17 04:36:27;;;;;;;5.12;2.05;;;17.20;66.50;;;;;;2388966;54;20988;-72
2022/02/17 04:38:53;;;;;;;4.65;2.42;;;17.30;66.60;;;;;;2288415;56;21075;-73
2022/02/17 04:44:06;;;;;;;1.60;0.70;;;17.30;66.40;;;;;;2287535;55;21000;-71
2022/02/17 04:46:32;;;;;;;0.90;0.50;;;17.40;66.70;;;;;;2368426;55;20980;-71
2022/02/17 04:48:58;;;;;;;1.48;0.70;;;17.40;66.00;;;;;;2523601;54;20998;-74
2022/02/17 04:51:25;;;;;;;1.30;0.60;;;17.40;65.80;;;;;;2306491;55;21487;-71
2022/02/17 04:53:51;;;;;;;5.22;3.50;;;17.40;66.00;;;;;;2288473;56;21878;-71
2022/02/17 04:56:19;;;;;;;2.67;1.62;;;17.30;65.90;;;;;;2287878;55;21247;-72
2022/02/17 04:58:46;;;;;;;1.75;0.80;;;17.40;66.10;;;;;;2288556;56;21056;-73
2022/02/17 05:01:13;;;;;;;0.82;0.50;;;17.40;66.30;;;;;;2288659;56;20948;-73
2022/02/17 05:03:40;;;;;;;0.20;0.20;;;17.40;66.20;;;;;;2339703;55;20988;-71
2022/02/17 05:06:07;;;;;;;0.13;0.10;;;17.40;66.30;;;;;;2287800;55;21026;-72
2022/02/17 05:08:35;;;;;;;0.73;0.30;;;17.40;66.90;;;;;;2469917;54;21056;-72
2022/02/17 05:11:02;;;;;;;0.20;0.03;;;17.40;66.20;;;;;;2299521;54;20961;-71
2022/02/17 05:13:28;;;;;;;0.30;0.10;;;17.40;66.30;;;;;;2291702;55;21486;-71
2022/02/17 05:15:55;;;;;;;0.08;0.08;;;17.40;66.10;;;;;;2291556;55;20960;-74
2022/02/17 05:18:22;;;;;;;1.45;0.00;;;17.30;65.90;;;;;;2309746;54;21755;-70
2022/02/17 05:20:48;;;;;;;0.32;0.03;;;17.30;65.80;;;;;;2289179;56;20973;-73
2022/02/17 05:23:14;;;;;;;0.30;0.10;;;17.30;65.70;;;;;;2289261;56;20925;-73
2022/02/17 05:25:40;;;;;;;0.00;0.00;;;17.30;65.40;;;;;;2288451;56;21489;-72
2022/02/17 05:28:08;;;;;;;0.13;0.00;;;17.30;65.70;;;;;;2288430;55;21692;-73
2022/02/17 05:30:43;;;;;;;0.32;0.10;;;17.20;65.90;;;;;;2289504;56;21026;-71
2022/02/17 05:33:11;;;;;;;0.40;0.10;;;17.20;65.50;;;;;;2291008;55;21362;-71
2022/02/17 05:35:37;;;;;;;0.45;0.10;;;17.20;65.70;;;;;;2373271;55;21025;-73
2022/02/17 05:38:04;;;;;;;0.20;0.10;;;17.20;65.70;;;;;;2300940;55;20945;-72
2022/02/17 05:40:32;;;;;;;0.10;0.05;;;17.20;65.90;;;;;;2303330;54;21026;-73
2022/02/17 05:42:58;;;;;;;0.40;0.20;;;17.20;66.00;;;;;;2296139;55;20957;-71
2022/02/17 05:45:25;;;;;;;0.55;0.30;;;17.30;66.20;;;;;;2517625;55;20929;-73
2022/02/17 05:47:53;;;;;;;0.47;0.20;;;17.20;66.30;;;;;;2358639;55;20940;-73
2022/02/17 05:50:20;;;;;;;0.60;0.30;;;17.20;66.10;;;;;;2297580;55;20973;-71
2022/02/17 05:52:50;;;;;;;0.60;0.32;;;17.20;66.10;;;;;;2318376;55;21619;-74
2022/02/17 05:55:17;;;;;;;0.88;0.30;;;17.30;66.20;;;;;;2300009;55;20980;-72
2022/02/17 05:57:43;;;;;;;0.98;0.20;;;17.20;65.80;;;;;;2381529;55;21488;-74
2022/02/17 06:00:10;;;;;;;0.70;0.17;;;17.30;66.10;;;;;;2393191;55;21441;-72
2022/02/17 06:02:37;;;;;;;0.20;0.10;;;17.20;66.10;;;;;;2287487;55;21089;-72
2022/02/17 06:05:03;;;;;;;0.68;0.20;;;17.30;66.10;;;;;;2287904;55;21060;-70
2022/02/17 06:07:30;;;;;;;0.10;0.10;;;17.30;66.10;;;;;;2311977;54;20933;-73
2022/02/17 06:09:57;;;;;;;1.33;0.20;;;17.30;66.10;;;;;;2351861;55;20945;-74
2022/02/17 06:12:24;;;;;;;0.52;0.20;;;17.20;66.00;;;;;;2289116;56;20948;-72
2022/02/17 06:14:52;;;;;;;1.12;0.40;;;17.20;66.00;;;;;;2360189;55;21014;-73
2022/02/17 06:17:21;;;;;;;1.30;0.20;;;17.20;66.10;;;;;;2288127;55;20928;-72
2022/02/17 06:19:47;;;;;;;0.47;0.17;;;17.20;66.20;;;;;;2289227;56;21814;-73
2022/02/17 06:22:14;;;;;;;0.62;0.30;;;17.10;66.10;;;;;;2523917;54;20988;-73
2022/02/17 06:24:40;;;;;;;2.65;0.82;;;17.10;66.10;;;;;;2288447;56;21019;-71
2022/02/17 06:27:07;;;;;;;4.00;1.42;;;17.10;66.10;;;;;;2401157;55;20965;-71
2022/02/17 06:29:33;;;;;;;6.18;3.20;;;17.00;66.20;;;;;;2294260;55;21526;-71
2022/02/17 06:32:00;;;;;;;7.90;3.25;;;17.00;66.10;;;;;;2343600;54;21488;-75
2022/02/17 06:34:27;;;;;;;5.00;2.40;;;17.00;66.20;;;;;;2288426;56;21035;-74
2022/02/17 06:36:53;;;;;;;7.40;4.35;;;17.00;65.80;;;;;;2294789;55;20968;-73
2022/02/17 06:39:19;;;;;;;4.18;2.17;;;16.90;65.50;;;;;;2290293;55;20949;-71
2022/02/17 06:41:46;;;;;;;2.08;0.90;;;16.90;65.70;;;;;;2289333;56;20956;-74
2022/02/17 06:44:12;;;;;;;3.33;0.77;;;16.90;65.80;;;;;;2344027;55;21254;-73
2022/02/17 06:46:40;;;;;;;2.28;0.88;;;16.90;65.80;;;;;;2351567;55;21573;-72
2022/02/17 06:49:06;;;;;;;0.57;0.30;;;16.90;65.30;;;;;;2376554;54;21060;-73
2022/02/17 06:51:32;;;;;;;1.85;0.50;;;16.90;65.30;;;;;;2289717;55;21044;-73
2022/02/17 06:54:01;;;;;;;1.77;0.60;;;16.90;65.20;;;;;;2288201;55;20957;-74
2022/02/17 06:56:28;;;;;;;1.75;0.50;;;16.90;65.10;;;;;;2273993;55;21021;-71
2022/02/17 06:58:54;;;;;;;1.70;0.40;;;16.90;65.30;;;;;;2288467;55;21052;-72
2022/02/17 07:01:23;;;;;;;3.62;1.00;;;16.90;65.20;;;;;;2287336;55;21048;-72
2022/02/17 07:03:51;;;;;;;4.00;1.00;;;16.90;65.20;;;;;;2289343;55;20937;-73
2022/02/17 07:06:17;;;;;;;5.18;1.85;;;16.90;65.20;;;;;;2522284;55;20997;-72
2022/02/17 07:08:44;;;;;;;4.37;1.33;;;16.90;65.40;;;;;;2289118;55;20965;-74
2022/02/17 07:11:11;;;;;;;4.32;1.33;;;16.80;65.10;;;;;;2287818;55;20972;-72
2022/02/17 07:13:37;;;;;;;3.80;1.00;;;16.90;65.30;;;;;;2288781;56;20964;-73
2022/02/17 07:16:04;;;;;;;3.72;1.42;;;16.80;65.20;;;;;;2347642;55;21466;-74
2022/02/17 07:18:30;;;;;;;5.53;1.90;;;16.80;65.30;;;;;;2327166;54;21017;-71
2022/02/17 07:20:58;;;;;;;5.12;1.98;;;16.80;65.40;;;;;;2397771;55;21013;-73
2022/02/17 07:23:25;;;;;;;5.43;1.90;;;16.80;65.30;;;;;;2288473;55;21366;-75
2022/02/17 07:29:20;;;;;;;7.32;2.60;;;16.80;64.60;;;;;;2287102;56;21885;-73
2022/02/17 07:31:52;;;;;;;13.38;4.53;;;16.70;65.50;;;;;;2300193;55;21040;-74
2022/02/17 07:34:21;;;;;;;8.38;3.20;;;16.70;65.30;;;;;;2287061;56;21480;-74
2022/02/17 07:36:49;;;;;;;5.10;1.77;;;16.70;65.20;;;;;;2313197;55;21745;-72
2022/02/17 07:39:16;;;;;;;8.88;2.42;;;16.60;65.10;;;;;;2283783;55;21347;-72
2022/02/17 07:41:43;;;;;;;5.78;2.30;;;16.50;64.80;;;;;;2287852;55;20994;-72
2022/02/17 07:44:09;;;;;;;6.95;2.50;;;16.50;65.00;;;;;;2283824;55;20985;-72
2022/02/17 07:46:36;;;;;;;4.90;1.85;;;16.40;65.00;;;;;;2386597;55;20973;-73
2022/02/17 07:49:02;;;;;;;4.43;1.77;;;16.30;64.80;;;;;;2287028;56;20933;-72
2022/02/17 07:51:30;;;;;;;6.60;2.25;;;16.30;64.90;;;;;;2286609;56;21383;-72
2022/02/17 07:53:56;;;;;;;6.35;2.37;;;16.20;65.00;;;;;;2286577;56;21485;-73
2022/02/17 07:56:22;;;;;;;4.70;1.80;;;16.10;65.10;;;;;;2286586;56;21071;-72
2022/02/17 07:58:49;;;;;;;5.62;1.70;;;16.10;65.10;;;;;;2286400;56;20985;-72
2022/02/17 08:01:15;;;;;;;5.70;1.60;;;16.00;64.80;;;;;;2354643;55;20996;-73
2022/02/17 08:03:42;;;;;;;4.62;1.27;;;16.00;64.70;;;;;;2377280;55;20961;-73
2022/02/17 08:06:08;;;;;;;4.57;1.50;;;16.00;64.70;;;;;;2327284;55;21042;-73
2022/02/17 08:08:51;;;;;;;5.30;1.73;;;15.90;64.70;;;;;;2286158;56;20960;-74
2022/02/17 08:11:18;;;;;;;8.20;1.77;;;15.90;64.70;;;;;;2287052;56;21024;-73
2022/02/17 08:13:44;;;;;;;8.45;2.42;;;15.90;64.60;;;;;;2287083;55;21307;-73
2022/02/17 08:16:11;;;;;;;7.07;1.98;;;15.90;64.60;;;;;;2370892;55;21111;-73
2022/02/17 08:18:38;;;;;;;8.52;2.28;;;15.80;64.20;;;;;;2446015;55;21013;-73
2022/02/17 08:21:04;;;;;;;9.43;1.90;;;15.80;64.40;;;;;;2285737;55;20989;-73
2022/02/17 08:23:32;;;;;;;6.45;1.80;;;15.70;64.20;;;;;;2390988;55;21020;-73
2022/02/17 08:26:00;;;;;;;9.57;2.12;;;15.70;64.30;;;;;;2287573;56;20961;-73
2022/02/17 08:28:29;;;;;;;9.70;2.35;;;15.70;64.00;;;;;;2280458;56;20936;-73
2022/02/17 08:30:56;;;;;;;10.75;2.37;;;15.70;63.80;;;;;;2287126;56;20973;-73
2022/02/17 08:33:22;;;;;;;10.27;2.12;;;15.70;63.90;;;;;;2285436;55;20960;-73
2022/02/17 08:35:48;;;;;;;7.32;2.00;;;15.60;63.60;;;;;;2332876;54;21030;-73
2022/02/17 08:38:15;;;;;;;9.70;1.98;;;15.60;63.50;;;;;;2274373;55;20956;-74
2022/02/17 08:40:41;;;;;;;7.60;1.90;;;15.60;63.40;;;;;;2311814;54;21017;-73
2022/02/17 08:43:10;;;;;;;8.23;2.10;;;15.50;63.40;;;;;;2336478;55;20925;-73
2022/02/17 08:45:39;;;;;;;8.63;1.85;;;15.50;63.60;;;;;;2336238;54;21045;-74
2022/02/17 08:48:06;;;;;;;10.82;2.37;;;15.60;63.90;;;;;;2292682;55;20953;-74
2022/02/17 08:50:33;;;;;;;7.07;2.10;;;15.50;63.90;;;;;;2286577;56;21427;-74
2022/02/17 08:52:59;;;;;;;4.65;1.50;;;15.50;64.00;;;;;;2287744;55;21222;-74
2022/02/17 08:55:37;;;;;;;10.43;2.97;;;15.60;64.20;;;;;;2286082;56;21734;-74
2022/02/17 08:58:04;;;;;;;9.45;2.97;;;15.60;64.40;;;;;;2289575;55;20957;-74
2022/02/17 09:00:31;;;;;;;10.13;2.55;;;15.60;64.40;;;;;;2298694;54;21012;-74
2022/02/17 09:02:57;;;;;;;7.35;2.10;;;15.60;64.20;;;;;;2287032;56;21615;-74
2022/02/17 09:05:27;;;;;;;8.20;1.90;;;15.60;63.90;;;;;;2332145;55;20992;-74
2022/02/17 09:07:54;;;;;;;9.07;2.20;;;15.70;64.00;;;;;;2287143;56;20968;-73
2022/02/17 09:10:20;;;;;;;8.18;1.73;;;15.70;63.60;;;;;;2365587;54;21006;-74
2022/02/17 09:12:48;;;;;;;6.22;1.87;;;15.70;63.70;;;;;;2286745;55;20944;-73
2022/02/17 09:15:20;;;;;;;7.45;1.95;;;15.70;63.70;;;;;;2346448;55;21525;-75
2022/02/17 09:17:46;;;;;;;9.00;2.00;;;15.80;63.50;;;;;;2287700;55;21775;-75
2022/02/17 09:20:13;;;;;;;6.03;1.85;;;15.80;64.30;;;;;;2284473;55;21056;-74
2022/02/17 09:22:44;;;;;;;9.05;2.20;;;16.00;65.10;;;;;;2285421;55;20950;-73
2022/02/17 09:25:11;;;;;;;8.02;2.08;;;16.10;64.50;;;;;;2388892;54;21032;-74
2022/02/17 09:27:37;;;;;;;9.88;2.75;;;16.30;64.90;;;;;;2286813;56;20969;-74
2022/02/17 09:30:05;;;;;;;10.80;2.90;;;16.50;65.50;;;;;;2335531;55;21417;-74
2022/02/17 09:32:31;;;;;;;13.50;4.82;;;16.70;65.50;;;;;;2286807;55;20932;-75
2022/02/17 09:34:58;;;;;;;10.75;3.03;;;16.80;64.30;;;;;;2311249;55;20961;-74
2022/02/17 09:37:25;;;;;;;9.68;2.22;;;16.90;64.20;;;;;;2285516;55;20960;-74
2022/02/17 09:39:52;;;;;;;9.63;2.42;;;17.00;63.70;;;;;;2294597;55;20995;-73
2022/02/17 09:42:19;;;;;;;10.73;1.90;;;17.00;63.50;;;;;;2287181;56;21537;-74
2022/02/17 09:44:46;;;;;;;9.98;1.70;;;17.10;62.90;;;;;;2286734;55;21269;-74
2022/02/17 09:47:12;;;;;;;8.15;1.60;;;17.10;62.90;;;;;;2286893;56;21487;-75
2022/02/17 09:49:42;;;;;;;7.75;1.67;;;17.20;62.60;;;;;;2346059;55;21036;-74
2022/02/17 09:52:10;;;;;;;8.82;1.75;;;17.30;62.60;;;;;;2286534;56;20980;-74
2022/02/17 09:54:39;;;;;;;11.18;2.03;;;17.40;62.90;;;;;;2286655;56;20972;-75
2022/02/17 09:57:05;;;;;;;8.40;1.90;;;17.40;63.10;;;;;;2286426;56;21345;-75
2022/02/17 09:59:32;;;;;;;10.75;2.03;;;17.50;62.20;;;;;;2290547;55;21580;-75
2022/02/17 10:01:59;;;;;;;13.32;2.72;;;17.60;62.40;;;;;;2282618;55;21049;-74
2022/02/17 10:04:27;;;;;;;8.55;2.20;;;17.70;62.20;;;;;;2521481;55;20937;-76
2022/02/17 10:06:58;;;;;;;9.10;1.73;;;17.70;61.20;;;;;;2368154;55;20961;-75
2022/02/17 10:09:38;;;;;;;8.25;1.92;;;17.80;61.30;;;;;;2348562;55;20975;-73
2022/02/17 10:12:04;;;;;;;9.32;2.08;;;17.90;60.80;;;;;;2394965;54;21065;-73
2022/02/17 10:14:33;;;;;;;9.63;2.20;;;18.00;62.10;;;;;;2447050;54;21517;-72
2022/02/17 10:17:08;;;;;;;9.68;2.33;;;18.10;60.70;;;;;;2287625;55;20945;-75
2022/02/17 10:19:41;;;;;;;10.52;2.17;;;18.10;59.60;;;;;;2286513;56;20960;-73
2022/02/17 10:22:12;;;;;;;7.60;1.87;;;18.10;58.90;;;;;;2287155;56;21041;-74
2022/02/17 10:24:52;;;;;;;7.57;1.60;;;18.00;58.70;;;;;;2309231;54;20948;-74
2022/02/17 10:27:22;;;;;;;10.70;2.30;;;17.90;58.20;;;;;;2287321;56;20952;-75
2022/02/17 10:30:13;;;;;;;7.80;2.10;;;17.80;58.50;;;;;;2290673;55;20945;-75
2022/02/17 10:34:03;;;;;;;11.68;2.67;;;17.70;58.20;;;;;;2450051;54;21006;-73
2022/02/17 10:36:40;;;;;;;10.63;2.22;;;17.60;57.70;;;;;;2264931;55;21128;-74
2022/02/17 10:39:14;;;;;;;9.65;2.17;;;17.50;57.80;;;;;;2286516;55;21328;-74
2022/02/17 10:42:13;;;;;;;9.93;2.45;;;17.40;58.30;;;;;;2318924;55;20962;-73
2022/02/17 10:44:41;;;;;;;8.10;1.90;;;17.30;57.80;;;;;;2286721;55;21029;-74
2022/02/17 10:47:20;;;;;;;11.68;2.53;;;17.30;58.90;;;;;;2344174;55;21460;-74
2022/02/17 10:49:50;;;;;;;10.20;1.90;;;17.30;59.00;;;;;;2284686;55;21485;-73
2022/02/17 10:52:30;;;;;;;7.90;1.48;;;17.40;59.60;;;;;;2520522;55;21752;-74
2022/02/17 10:56:51;;;;;;;9.30;1.83;;;17.50;59.50;;;;;;2284689;56;21013;-74
2022/02/17 11:02:04;;;;;;;10.75;2.08;;;17.80;60.70;;;;;;2289823;55;20984;-74
2022/02/17 11:04:31;;;;;;;10.95;2.10;;;17.90;59.40;;;;;;2436430;54;21017;-74
2022/02/17 11:06:57;;;;;;;7.25;1.70;;;17.90;58.70;;;;;;2286253;56;20952;-75
2022/02/17 11:09:24;;;;;;;10.20;2.20;;;17.90;58.20;;;;;;2339341;55;21076;-73
2022/02/17 11:11:51;;;;;;;10.32;2.00;;;17.90;57.80;;;;;;2317837;55;21413;-74
2022/02/17 11:14:41;;;;;;;8.27;1.90;;;17.80;57.60;;;;;;2306380;55;21453;-73
2022/02/17 11:17:09;;;;;;;11.48;1.80;;;17.70;56.80;;;;;;2286400;56;21091;-74
2022/02/17 11:19:48;;;;;;;10.60;2.35;;;17.70;57.40;;;;;;2287672;55;21865;-74
2022/02/17 11:22:16;;;;;;;12.98;3.10;;;17.60;57.20;;;;;;2286924;55;20944;-74
2022/02/17 11:25:44;;;;;;;14.23;2.78;;;17.50;56.70;;;;;;2459544;54;20963;-75
2022/02/17 11:28:13;;;;;;;9.95;2.15;;;17.40;56.00;;;;;;2286448;56;20968;-74
2022/02/17 11:30:42;;;;;;;12.68;2.80;;;17.30;56.40;;;;;;2420256;55;20981;-74
2022/02/17 11:33:22;;;;;;;10.00;2.70;;;17.20;56.20;;;;;;2285972;56;21715;-75
2022/02/17 11:36:03;;;;;;;13.60;3.55;;;17.10;55.70;;;;;;2309347;55;21861;-74
2022/02/17 11:38:32;;;;;;;15.07;5.18;;;17.00;56.70;;;;;;2286561;56;21445;-73
2022/02/17 11:41:20;;;;;;;30.77;11.18;;;16.90;57.00;;;;;;2351749;55;21036;-74
2022/02/17 11:43:51;;;;;;;21.00;8.50;;;16.90;56.30;;;;;;2286488;56;21008;-74
2022/02/17 11:46:48;;;;;;;18.67;7.78;;;16.90;57.20;;;;;;2286593;56;20936;-74
2022/02/17 11:56:47;;;;;;;15.00;4.65;;;16.90;56.70;;;;;;2286108;56;21502;-75
2022/02/17 12:00:36;;;;;;;10.43;1.90;;;16.80;58.10;;;;;;2286381;56;21426;-74
2022/02/17 12:03:02;;;;;;;14.77;2.08;;;16.80;57.60;;;;;;2291103;55;21355;-73
2022/02/17 12:05:29;;;;;;;7.93;2.20;;;16.80;58.60;;;;;;2418975;55;21097;-73
2022/02/17 12:08:22;;;;;;;10.30;2.30;;;16.80;58.60;;;;;;2287040;56;20956;-74
2022/02/17 12:10:48;;;;;;;9.73;2.53;;;16.70;57.90;;;;;;2370901;55;21517;-75
2022/02/17 12:13:29;;;;;;;11.68;3.08;;;16.70;58.00;;;;;;2293400;55;20953;-74
2022/02/17 12:15:55;;;;;;;11.93;2.28;;;16.80;57.00;;;;;;2286902;56;21477;-73
2022/02/17 12:18:24;;;;;;;9.88;2.30;;;16.70;57.60;;;;;;2292578;55;20984;-75
2022/02/17 12:20:58;;;;;;;14.10;2.70;;;16.70;57.30;;;;;;2311769;55;21008;-74
2022/02/17 12:23:24;;;;;;;13.30;2.40;;;16.70;57.20;;;;;;2286862;56;20953;-74
2022/02/17 12:25:54;;;;;;;15.65;2.60;;;16.60;57.20;;;;;;2286412;56;20973;-73
2022/02/17 12:28:20;;;;;;;14.50;3.12;;;16.60;57.00;;;;;;2286529;56;21993;-74
2022/02/17 12:30:49;;;;;;;12.45;2.97;;;16.60;56.90;;;;;;2370865;55;20956;-73
2022/02/17 12:33:25;;;;;;;12.07;3.12;;;16.50;57.00;;;;;;2278971;55;21046;-74
2022/02/17 12:36:11;;;;;;;13.02;2.50;;;16.50;56.70;;;;;;2316089;54;21051;-74
2022/02/17 12:38:37;;;;;;;10.23;2.30;;;16.50;57.20;;;;;;2332248;55;21500;-74
2022/02/17 12:41:08;;;;;;;10.20;2.55;;;16.40;57.50;;;;;;2298109;55;20968;-75
2022/02/17 12:43:39;;;;;;;10.02;2.12;;;16.40;57.50;;;;;;2286027;55;21009;-74
2022/02/17 12:46:06;;;;;;;10.70;2.50;;;16.40;57.60;;;;;;2289054;55;21046;-74
2022/02/17 12:48:34;;;;;;;15.35;2.37;;;16.40;57.80;;;;;;2284974;55;21572;-74
2022/02/17 12:51:27;;;;;;;13.55;2.72;;;16.40;57.70;;;;;;2342252;55;21043;-75
2022/02/17 12:53:57;;;;;;;13.30;2.75;;;16.40;57.60;;;;;;2285688;56;20957;-73
2022/02/17 12:56:35;;;;;;;15.43;3.15;;;16.40;57.70;;;;;;2298740;55;20969;-75
2022/02/17 12:59:15;;;;;;;11.38;2.70;;;16.40;56.70;;;;;;2284909;55;20937;-73
2022/02/17 13:01:47;;;;;;;14.07;3.55;;;16.40;57.40;;;;;;2286565;56;21477;-74
2022/02/17 13:04:16;;;;;;;12.88;2.62;;;16.40;57.80;;;;;;2286404;56;20973;-73
2022/02/17 13:06:42;;;;;;;12.27;3.90;;;16.40;57.90;;;;;;2324422;55;21813;-73
2022/02/17 13:09:23;;;;;;;11.70;3.10;;;16.40;58.10;;;;;;2286347;56;21392;-73
2022/02/17 13:11:52;;;;;;;10.60;3.03;;;16.40;57.60;;;;;;2320656;55;21008;-73
2022/02/17 13:14:18;;;;;;;12.82;2.75;;;16.40;58.20;;;;;;2381601;54;21390;-74
2022/02/17 13:16:52;;;;;;;11.15;2.15;;;16.40;58.20;;;;;;2491468;54;21332;-75